sensor_id;sensor_type;location;lat;lon;timestamp;temperature;humidity
851;DHT22;412;51.400;7.480;2023-05-16T00:00:07;15.60;99.90
851;DHT22;412;51.400;7.480;2023-05-16T00:02:34;15.50;99.90
851;DHT22;412;51.400;7.480;2023-05-16T00:05:04;15.30;99.90
851;DHT22;412;51.400;7.480;2023-05-16T00:07:32;15.20;99.90
851;DHT22;412;51.400;7.480;2023-05-16T00:09:59;15.10;99.90
851;DHT22;412;51.400;7.480;2023-05-16T00:12:25;15.00;99.90
851;DHT22;412;51.400;7.480;2023-05-16T00:14:51;14.90;99.90
851;DHT22;412;51.400;7.480;2023-05-16T00:17:18;15.00;99.90
851;DHT22;412;51.400;7.480;2023-05-16T00:19:47;14.90;99.90
851;DHT22;412;51.400;7.480;2023-05-16T00:22:14;14.90;99.90
851;DHT22;412;51.400;7.480;2023-05-16T00:24:40;14.80;99.90
851;DHT22;412;51.400;7.480;2023-05-16T00:27:06;14.90;99.90
851;DHT22;412;51.400;7.480;2023-05-16T00:29:34;14.90;99.90
851;DHT22;412;51.400;7.480;2023-05-16T00:31:59;14.80;99.90
851;DHT22;412;51.400;7.480;2023-05-16T00:34:25;14.80;99.90
851;DHT22;412;51.400;7.480;2023-05-16T00:36:51;14.80;99.90
851;DHT22;412;51.400;7.480;2023-05-16T00:39:17;14.80;99.90
851;DHT22;412;51.400;7.480;2023-05-16T00:41:43;14.80;99.90
851;DHT22;412;51.400;7.480;2023-05-16T00:44:09;14.90;99.90
851;DHT22;412;51.400;7.480;2023-05-16T00:46:35;14.80;99.90
851;DHT22;412;51.400;7.480;2023-05-16T00:49:02;14.80;99.90
851;DHT22;412;51.400;7.480;2023-05-16T00:51:28;14.70;99.90
851;DHT22;412;51.400;7.480;2023-05-16T00:53:54;14.70;99.90
851;DHT22;412;51.400;7.480;2023-05-16T00:56:21;14.60;99.90
851;DHT22;412;51.400;7.480;2023-05-16T00:58:47;14.60;99.90
851;DHT22;412;51.400;7.480;2023-05-16T01:01:14;14.50;99.90
851;DHT22;412;51.400;7.480;2023-05-16T01:03:41;14.50;99.90
851;DHT22;412;51.400;7.480;2023-05-16T01:06:11;14.40;99.90
851;DHT22;412;51.400;7.480;2023-05-16T01:08:38;14.50;99.90
851;DHT22;412;51.400;7.480;2023-05-16T01:13:56;14.50;99.90
851;DHT22;412;51.400;7.480;2023-05-16T01:16:49;14.40;99.90
851;DHT22;412;51.400;7.480;2023-05-16T01:19:45;14.40;99.90
851;DHT22;412;51.400;7.480;2023-05-16T01:27:32;14.40;99.90
851;DHT22;412;51.400;7.480;2023-05-16T01:30:00;14.40;99.90
851;DHT22;412;51.400;7.480;2023-05-16T01:32:25;14.40;99.90
851;DHT22;412;51.400;7.480;2023-05-16T01:34:52;14.40;99.90
851;DHT22;412;51.400;7.480;2023-05-16T01:39:48;14.30;99.90
851;DHT22;412;51.400;7.480;2023-05-16T01:42:18;14.30;99.90
851;DHT22;412;51.400;7.480;2023-05-16T01:47:34;14.20;99.90
851;DHT22;412;51.400;7.480;2023-05-16T01:50:13;14.20;99.90
851;DHT22;412;51.400;7.480;2023-05-16T01:52:55;14.20;99.90
851;DHT22;412;51.400;7.480;2023-05-16T01:58:11;14.10;99.90
851;DHT22;412;51.400;7.480;2023-05-16T02:00:39;14.10;99.90
851;DHT22;412;51.400;7.480;2023-05-16T02:03:06;14.10;99.90
851;DHT22;412;51.400;7.480;2023-05-16T02:05:32;14.10;99.90
851;DHT22;412;51.400;7.480;2023-05-16T02:07:58;14.00;99.90
851;DHT22;412;51.400;7.480;2023-05-16T02:10:24;13.90;99.90
851;DHT22;412;51.400;7.480;2023-05-16T02:12:51;13.70;99.90
851;DHT22;412;51.400;7.480;2023-05-16T02:15:17;13.70;99.90
851;DHT22;412;51.400;7.480;2023-05-16T02:17:42;13.70;99.90
851;DHT22;412;51.400;7.480;2023-05-16T02:20:09;13.70;99.90
851;DHT22;412;51.400;7.480;2023-05-16T02:22:35;13.60;99.90
851;DHT22;412;51.400;7.480;2023-05-16T02:25:02;13.60;99.90
851;DHT22;412;51.400;7.480;2023-05-16T02:27:28;13.50;99.90
851;DHT22;412;51.400;7.480;2023-05-16T02:29:54;13.50;99.90
851;DHT22;412;51.400;7.480;2023-05-16T02:32:20;13.50;99.90
851;DHT22;412;51.400;7.480;2023-05-16T02:34:46;13.40;99.90
851;DHT22;412;51.400;7.480;2023-05-16T02:37:15;13.40;99.90
851;DHT22;412;51.400;7.480;2023-05-16T02:39:41;13.40;99.90
851;DHT22;412;51.400;7.480;2023-05-16T02:42:06;13.30;99.90
851;DHT22;412;51.400;7.480;2023-05-16T02:44:32;13.30;99.90
851;DHT22;412;51.400;7.480;2023-05-16T02:46:58;13.20;99.90
851;DHT22;412;51.400;7.480;2023-05-16T02:49:24;13.30;99.90
851;DHT22;412;51.400;7.480;2023-05-16T02:51:50;13.30;99.90
851;DHT22;412;51.400;7.480;2023-05-16T02:54:16;13.30;99.90
851;DHT22;412;51.400;7.480;2023-05-16T02:56:42;13.30;99.90
851;DHT22;412;51.400;7.480;2023-05-16T02:59:08;13.20;99.90
851;DHT22;412;51.400;7.480;2023-05-16T03:01:33;13.20;99.90
851;DHT22;412;51.400;7.480;2023-05-16T03:03:59;13.20;99.90
851;DHT22;412;51.400;7.480;2023-05-16T03:06:25;13.20;99.90
851;DHT22;412;51.400;7.480;2023-05-16T03:08:50;13.10;99.90
851;DHT22;412;51.400;7.480;2023-05-16T03:11:17;13.10;99.90
851;DHT22;412;51.400;7.480;2023-05-16T03:13:46;13.10;99.90
851;DHT22;412;51.400;7.480;2023-05-16T03:16:12;13.10;99.90
851;DHT22;412;51.400;7.480;2023-05-16T03:18:37;13.10;99.90
851;DHT22;412;51.400;7.480;2023-05-16T03:21:03;13.00;99.90
851;DHT22;412;51.400;7.480;2023-05-16T03:23:29;13.00;99.90
851;DHT22;412;51.400;7.480;2023-05-16T03:25:55;13.00;99.90
851;DHT22;412;51.400;7.480;2023-05-16T03:28:21;13.00;99.90
851;DHT22;412;51.400;7.480;2023-05-16T03:30:46;13.00;99.90
851;DHT22;412;51.400;7.480;2023-05-16T03:33:12;13.00;99.90
851;DHT22;412;51.400;7.480;2023-05-16T03:35:38;13.00;99.90
851;DHT22;412;51.400;7.480;2023-05-16T03:38:04;13.00;99.90
851;DHT22;412;51.400;7.480;2023-05-16T03:40:30;13.00;99.90
851;DHT22;412;51.400;7.480;2023-05-16T03:42:56;13.00;99.90
851;DHT22;412;51.400;7.480;2023-05-16T03:45:21;13.00;99.90
851;DHT22;412;51.400;7.480;2023-05-16T03:47:50;13.00;99.90
851;DHT22;412;51.400;7.480;2023-05-16T03:50:16;13.00;99.90
851;DHT22;412;51.400;7.480;2023-05-16T03:52:42;13.00;99.90
851;DHT22;412;51.400;7.480;2023-05-16T03:55:08;12.90;99.90
851;DHT22;412;51.400;7.480;2023-05-16T03:57:36;12.90;99.90
851;DHT22;412;51.400;7.480;2023-05-16T04:00:06;12.90;99.90
851;DHT22;412;51.400;7.480;2023-05-16T04:02:35;12.90;99.90
851;DHT22;412;51.400;7.480;2023-05-16T04:05:01;12.90;99.90
851;DHT22;412;51.400;7.480;2023-05-16T04:07:27;12.90;99.90
851;DHT22;412;51.400;7.480;2023-05-16T04:09:53;13.10;99.90
851;DHT22;412;51.400;7.480;2023-05-16T04:12:20;13.20;99.90
851;DHT22;412;51.400;7.480;2023-05-16T04:14:47;13.20;99.90
851;DHT22;412;51.400;7.480;2023-05-16T04:17:13;13.30;99.90
851;DHT22;412;51.400;7.480;2023-05-16T04:19:39;13.40;99.90
851;DHT22;412;51.400;7.480;2023-05-16T04:22:05;13.50;99.90
851;DHT22;412;51.400;7.480;2023-05-16T04:24:32;13.60;99.90
851;DHT22;412;51.400;7.480;2023-05-16T04:26:58;13.70;99.90
851;DHT22;412;51.400;7.480;2023-05-16T04:29:24;13.80;99.90
851;DHT22;412;51.400;7.480;2023-05-16T04:31:50;13.90;99.90
851;DHT22;412;51.400;7.480;2023-05-16T04:34:16;13.90;99.90
851;DHT22;412;51.400;7.480;2023-05-16T04:36:42;13.90;99.90
851;DHT22;412;51.400;7.480;2023-05-16T04:39:08;14.00;99.90
851;DHT22;412;51.400;7.480;2023-05-16T04:41:34;14.00;99.90
851;DHT22;412;51.400;7.480;2023-05-16T04:44:03;14.10;99.90
851;DHT22;412;51.400;7.480;2023-05-16T04:46:29;14.10;99.90
851;DHT22;412;51.400;7.480;2023-05-16T04:48:55;14.10;99.90
851;DHT22;412;51.400;7.480;2023-05-16T04:51:21;14.10;99.90
851;DHT22;412;51.400;7.480;2023-05-16T04:53:47;14.10;99.90
851;DHT22;412;51.400;7.480;2023-05-16T04:56:13;14.10;99.90
851;DHT22;412;51.400;7.480;2023-05-16T04:58:38;14.10;99.90
851;DHT22;412;51.400;7.480;2023-05-16T05:01:04;14.10;99.90
851;DHT22;412;51.400;7.480;2023-05-16T05:03:30;14.10;99.90
851;DHT22;412;51.400;7.480;2023-05-16T05:05:56;14.00;99.90
851;DHT22;412;51.400;7.480;2023-05-16T05:08:22;14.10;99.90
851;DHT22;412;51.400;7.480;2023-05-16T05:10:48;14.10;99.90
851;DHT22;412;51.400;7.480;2023-05-16T05:13:13;14.10;99.90
851;DHT22;412;51.400;7.480;2023-05-16T05:15:39;14.10;99.90
851;DHT22;412;51.400;7.480;2023-05-16T05:18:05;14.10;99.90
851;DHT22;412;51.400;7.480;2023-05-16T05:20:30;14.00;99.90
851;DHT22;412;51.400;7.480;2023-05-16T05:22:56;14.00;99.90
851;DHT22;412;51.400;7.480;2023-05-16T05:25:22;14.00;99.90
851;DHT22;412;51.400;7.480;2023-05-16T05:27:48;14.00;99.90
851;DHT22;412;51.400;7.480;2023-05-16T05:30:13;14.00;99.90
851;DHT22;412;51.400;7.480;2023-05-16T05:32:39;14.00;99.90
851;DHT22;412;51.400;7.480;2023-05-16T05:35:06;14.00;99.90
851;DHT22;412;51.400;7.480;2023-05-16T05:37:31;14.10;99.90
851;DHT22;412;51.400;7.480;2023-05-16T05:39:57;14.10;99.90
851;DHT22;412;51.400;7.480;2023-05-16T05:42:23;14.10;99.90
851;DHT22;412;51.400;7.480;2023-05-16T05:44:49;14.20;99.90
851;DHT22;412;51.400;7.480;2023-05-16T05:47:15;14.20;99.90
851;DHT22;412;51.400;7.480;2023-05-16T05:49:40;14.20;99.90
851;DHT22;412;51.400;7.480;2023-05-16T05:52:06;14.20;99.90
851;DHT22;412;51.400;7.480;2023-05-16T05:54:32;14.20;99.90
851;DHT22;412;51.400;7.480;2023-05-16T05:57:00;14.20;99.90
851;DHT22;412;51.400;7.480;2023-05-16T05:59:26;14.20;99.90
851;DHT22;412;51.400;7.480;2023-05-16T06:01:52;14.20;99.90
851;DHT22;412;51.400;7.480;2023-05-16T06:04:18;14.30;99.90
851;DHT22;412;51.400;7.480;2023-05-16T06:06:47;14.50;99.90
851;DHT22;412;51.400;7.480;2023-05-16T06:09:13;15.00;99.90
851;DHT22;412;51.400;7.480;2023-05-16T06:11:40;15.40;99.90
851;DHT22;412;51.400;7.480;2023-05-16T06:14:06;15.80;99.90
851;DHT22;412;51.400;7.480;2023-05-16T06:16:32;16.10;99.90
851;DHT22;412;51.400;7.480;2023-05-16T06:18:58;16.40;99.90
851;DHT22;412;51.400;7.480;2023-05-16T06:21:24;16.70;99.90
851;DHT22;412;51.400;7.480;2023-05-16T06:23:50;16.90;99.90
851;DHT22;412;51.400;7.480;2023-05-16T06:26:15;17.20;99.90
851;DHT22;412;51.400;7.480;2023-05-16T06:28:41;17.60;99.90
851;DHT22;412;51.400;7.480;2023-05-16T06:31:07;17.80;99.90
851;DHT22;412;51.400;7.480;2023-05-16T06:33:33;18.10;99.90
851;DHT22;412;51.400;7.480;2023-05-16T06:35:59;18.30;99.90
851;DHT22;412;51.400;7.480;2023-05-16T06:38:25;18.40;99.90
851;DHT22;412;51.400;7.480;2023-05-16T06:40:50;18.60;99.90
851;DHT22;412;51.400;7.480;2023-05-16T06:43:16;18.50;94.20
851;DHT22;412;51.400;7.480;2023-05-16T06:45:43;18.10;94.90
851;DHT22;412;51.400;7.480;2023-05-16T06:48:12;17.80;93.80
851;DHT22;412;51.400;7.480;2023-05-16T06:50:38;17.40;93.70
851;DHT22;412;51.400;7.480;2023-05-16T06:53:03;16.90;94.50
851;DHT22;412;51.400;7.480;2023-05-16T06:55:31;16.70;96.00
851;DHT22;412;51.400;7.480;2023-05-16T06:57:56;16.40;97.50
851;DHT22;412;51.400;7.480;2023-05-16T07:00:22;16.10;97.40
851;DHT22;412;51.400;7.480;2023-05-16T07:02:48;15.80;99.30
851;DHT22;412;51.400;7.480;2023-05-16T07:05:14;15.60;99.90
851;DHT22;412;51.400;7.480;2023-05-16T07:07:40;15.50;99.90
851;DHT22;412;51.400;7.480;2023-05-16T07:10:06;15.40;99.90
851;DHT22;412;51.400;7.480;2023-05-16T07:12:32;15.20;99.90
851;DHT22;412;51.400;7.480;2023-05-16T07:14:57;15.10;99.90
851;DHT22;412;51.400;7.480;2023-05-16T07:17:24;14.90;99.90
851;DHT22;412;51.400;7.480;2023-05-16T07:19:49;14.90;99.90
851;DHT22;412;51.400;7.480;2023-05-16T07:22:15;14.80;99.90
851;DHT22;412;51.400;7.480;2023-05-16T07:24:41;14.80;99.90
851;DHT22;412;51.400;7.480;2023-05-16T07:27:07;14.70;99.90
851;DHT22;412;51.400;7.480;2023-05-16T07:29:32;14.70;99.90
851;DHT22;412;51.400;7.480;2023-05-16T07:31:58;14.60;99.90
851;DHT22;412;51.400;7.480;2023-05-16T07:34:24;14.50;99.90
851;DHT22;412;51.400;7.480;2023-05-16T07:36:49;14.60;99.90
851;DHT22;412;51.400;7.480;2023-05-16T07:39:15;14.70;99.90
851;DHT22;412;51.400;7.480;2023-05-16T07:41:41;14.80;99.90
851;DHT22;412;51.400;7.480;2023-05-16T07:44:07;14.90;99.90
851;DHT22;412;51.400;7.480;2023-05-16T07:46:32;14.90;99.90
851;DHT22;412;51.400;7.480;2023-05-16T07:48:58;14.90;99.90
851;DHT22;412;51.400;7.480;2023-05-16T07:51:24;15.00;99.90
851;DHT22;412;51.400;7.480;2023-05-16T07:53:50;15.00;99.90
851;DHT22;412;51.400;7.480;2023-05-16T07:56:16;14.90;98.30
851;DHT22;412;51.400;7.480;2023-05-16T07:58:42;14.90;98.60
851;DHT22;412;51.400;7.480;2023-05-16T08:01:08;15.00;99.70
851;DHT22;412;51.400;7.480;2023-05-16T08:03:35;15.10;99.30
851;DHT22;412;51.400;7.480;2023-05-16T08:06:01;15.10;99.70
851;DHT22;412;51.400;7.480;2023-05-16T08:08:27;15.30;99.30
851;DHT22;412;51.400;7.480;2023-05-16T08:10:52;15.40;97.90
851;DHT22;412;51.400;7.480;2023-05-16T08:13:19;15.50;98.90
851;DHT22;412;51.400;7.480;2023-05-16T08:15:49;15.60;97.50
851;DHT22;412;51.400;7.480;2023-05-16T08:18:15;15.50;96.50
851;DHT22;412;51.400;7.480;2023-05-16T08:20:41;15.40;97.00
851;DHT22;412;51.400;7.480;2023-05-16T08:23:08;15.40;97.20
851;DHT22;412;51.400;7.480;2023-05-16T08:25:34;15.30;97.00
851;DHT22;412;51.400;7.480;2023-05-16T08:28:00;15.20;96.70
851;DHT22;412;51.400;7.480;2023-05-16T08:30:29;15.10;95.10
851;DHT22;412;51.400;7.480;2023-05-16T08:32:54;15.00;95.10
851;DHT22;412;51.400;7.480;2023-05-16T08:35:20;15.00;95.50
851;DHT22;412;51.400;7.480;2023-05-16T08:37:46;15.00;95.80
851;DHT22;412;51.400;7.480;2023-05-16T08:40:12;14.90;94.90
851;DHT22;412;51.400;7.480;2023-05-16T08:42:40;14.90;94.90
851;DHT22;412;51.400;7.480;2023-05-16T08:45:06;15.00;96.50
851;DHT22;412;51.400;7.480;2023-05-16T08:47:32;15.20;96.60
851;DHT22;412;51.400;7.480;2023-05-16T08:50:02;15.50;95.40
851;DHT22;412;51.400;7.480;2023-05-16T08:52:30;15.80;94.50
851;DHT22;412;51.400;7.480;2023-05-16T08:55:02;16.10;94.50
851;DHT22;412;51.400;7.480;2023-05-16T08:57:32;16.40;92.10
851;DHT22;412;51.400;7.480;2023-05-16T08:59:59;16.40;92.10
851;DHT22;412;51.400;7.480;2023-05-16T09:02:26;16.30;89.60
851;DHT22;412;51.400;7.480;2023-05-16T09:04:53;16.20;91.10
851;DHT22;412;51.400;7.480;2023-05-16T09:07:21;16.20;90.40
851;DHT22;412;51.400;7.480;2023-05-16T09:09:48;16.10;88.80
851;DHT22;412;51.400;7.480;2023-05-16T09:12:13;16.00;90.40
851;DHT22;412;51.400;7.480;2023-05-16T09:14:39;16.00;90.00
851;DHT22;412;51.400;7.480;2023-05-16T09:17:07;16.10;92.20
851;DHT22;412;51.400;7.480;2023-05-16T09:19:41;16.30;90.80
851;DHT22;412;51.400;7.480;2023-05-16T09:22:14;16.60;92.80
851;DHT22;412;51.400;7.480;2023-05-16T09:24:41;16.70;90.50
851;DHT22;412;51.400;7.480;2023-05-16T09:27:09;16.80;89.20
851;DHT22;412;51.400;7.480;2023-05-16T09:29:35;16.70;88.00
851;DHT22;412;51.400;7.480;2023-05-16T09:32:13;16.60;84.50
851;DHT22;412;51.400;7.480;2023-05-16T09:34:47;16.60;87.30
851;DHT22;412;51.400;7.480;2023-05-16T09:37:17;16.50;83.50
851;DHT22;412;51.400;7.480;2023-05-16T09:39:47;16.40;83.90
851;DHT22;412;51.400;7.480;2023-05-16T09:42:15;16.30;88.60
851;DHT22;412;51.400;7.480;2023-05-16T09:44:45;16.50;88.60
851;DHT22;412;51.400;7.480;2023-05-16T09:47:19;16.80;89.30
851;DHT22;412;51.400;7.480;2023-05-16T09:49:50;17.00;85.20
851;DHT22;412;51.400;7.480;2023-05-16T09:52:16;17.20;84.60
851;DHT22;412;51.400;7.480;2023-05-16T09:54:43;17.40;82.10
851;DHT22;412;51.400;7.480;2023-05-16T09:57:10;17.50;81.30
851;DHT22;412;51.400;7.480;2023-05-16T09:59:37;17.40;80.50
851;DHT22;412;51.400;7.480;2023-05-16T10:02:05;17.30;80.10
851;DHT22;412;51.400;7.480;2023-05-16T10:04:34;17.20;79.90
851;DHT22;412;51.400;7.480;2023-05-16T10:07:04;17.10;80.10
851;DHT22;412;51.400;7.480;2023-05-16T10:09:33;16.90;80.50
851;DHT22;412;51.400;7.480;2023-05-16T10:12:04;16.90;84.00
851;DHT22;412;51.400;7.480;2023-05-16T10:14:37;17.00;82.30
851;DHT22;412;51.400;7.480;2023-05-16T10:17:06;17.00;82.80
851;DHT22;412;51.400;7.480;2023-05-16T10:19:37;17.20;87.60
851;DHT22;412;51.400;7.480;2023-05-16T10:22:04;17.30;84.00
851;DHT22;412;51.400;7.480;2023-05-16T10:27:15;17.80;83.10
851;DHT22;412;51.400;7.480;2023-05-16T10:29:42;18.10;83.60
851;DHT22;412;51.400;7.480;2023-05-16T10:32:09;18.20;81.10
851;DHT22;412;51.400;7.480;2023-05-16T10:34:35;18.30;74.50
851;DHT22;412;51.400;7.480;2023-05-16T10:37:02;18.00;77.50
851;DHT22;412;51.400;7.480;2023-05-16T10:39:29;17.90;81.10
851;DHT22;412;51.400;7.480;2023-05-16T10:41:56;17.90;77.70
851;DHT22;412;51.400;7.480;2023-05-16T10:44:24;18.00;79.80
851;DHT22;412;51.400;7.480;2023-05-16T10:46:50;18.10;75.60
851;DHT22;412;51.400;7.480;2023-05-16T10:49:24;18.10;75.80
851;DHT22;412;51.400;7.480;2023-05-16T10:52:10;18.00;73.90
851;DHT22;412;51.400;7.480;2023-05-16T10:54:41;18.10;81.00
851;DHT22;412;51.400;7.480;2023-05-16T10:57:11;18.20;77.50
851;DHT22;412;51.400;7.480;2023-05-16T10:59:47;18.10;77.10
851;DHT22;412;51.400;7.480;2023-05-16T11:02:33;17.90;75.50
851;DHT22;412;51.400;7.480;2023-05-16T11:05:05;18.10;75.40
851;DHT22;412;51.400;7.480;2023-05-16T11:07:33;18.20;78.40
851;DHT22;412;51.400;7.480;2023-05-16T11:10:09;18.20;75.20
851;DHT22;412;51.400;7.480;2023-05-16T11:12:49;18.20;73.20
851;DHT22;412;51.400;7.480;2023-05-16T11:15:26;18.20;74.40
851;DHT22;412;51.400;7.480;2023-05-16T11:18:15;18.30;74.80
851;DHT22;412;51.400;7.480;2023-05-16T11:20:42;18.40;74.10
851;DHT22;412;51.400;7.480;2023-05-16T11:23:18;18.50;75.80
851;DHT22;412;51.400;7.480;2023-05-16T11:25:56;18.80;76.70
851;DHT22;412;51.400;7.480;2023-05-16T11:28:26;19.10;77.50
851;DHT22;412;51.400;7.480;2023-05-16T11:30:54;19.30;75.30
851;DHT22;412;51.400;7.480;2023-05-16T11:33:23;19.40;73.60
851;DHT22;412;51.400;7.480;2023-05-16T11:36:06;19.30;72.90
851;DHT22;412;51.400;7.480;2023-05-16T11:38:33;19.20;70.60
851;DHT22;412;51.400;7.480;2023-05-16T11:41:04;19.20;70.50
851;DHT22;412;51.400;7.480;2023-05-16T11:43:40;19.20;71.60
851;DHT22;412;51.400;7.480;2023-05-16T11:46:06;19.10;72.30
851;DHT22;412;51.400;7.480;2023-05-16T11:48:32;19.00;69.70
851;DHT22;412;51.400;7.480;2023-05-16T11:50:59;19.10;74.10
851;DHT22;412;51.400;7.480;2023-05-16T11:53:26;19.20;74.70
851;DHT22;412;51.400;7.480;2023-05-16T11:55:52;19.40;76.60
851;DHT22;412;51.400;7.480;2023-05-16T11:58:19;19.60;76.50
851;DHT22;412;51.400;7.480;2023-05-16T12:00:49;19.90;74.30
851;DHT22;412;51.400;7.480;2023-05-16T12:03:17;20.00;71.70
851;DHT22;412;51.400;7.480;2023-05-16T12:05:54;20.00;67.70
851;DHT22;412;51.400;7.480;2023-05-16T12:08:21;19.80;68.10
851;DHT22;412;51.400;7.480;2023-05-16T12:10:49;19.50;69.70
851;DHT22;412;51.400;7.480;2023-05-16T12:13:19;19.20;67.40
851;DHT22;412;51.400;7.480;2023-05-16T12:15:46;18.90;68.60
851;DHT22;412;51.400;7.480;2023-05-16T12:18:13;18.70;69.70
851;DHT22;412;51.400;7.480;2023-05-16T12:20:39;18.50;71.30
851;DHT22;412;51.400;7.480;2023-05-16T12:23:10;18.20;71.60
851;DHT22;412;51.400;7.480;2023-05-16T12:25:36;18.10;74.50
851;DHT22;412;51.400;7.480;2023-05-16T12:28:06;17.80;74.80
851;DHT22;412;51.400;7.480;2023-05-16T12:30:32;17.70;77.60
851;DHT22;412;51.400;7.480;2023-05-16T12:33:03;17.40;79.00
851;DHT22;412;51.400;7.480;2023-05-16T12:35:33;17.20;81.90
851;DHT22;412;51.400;7.480;2023-05-16T12:38:03;17.10;87.40
851;DHT22;412;51.400;7.480;2023-05-16T12:40:29;16.90;90.50
851;DHT22;412;51.400;7.480;2023-05-16T12:42:56;16.70;92.40
851;DHT22;412;51.400;7.480;2023-05-16T12:45:23;16.70;92.20
851;DHT22;412;51.400;7.480;2023-05-16T12:47:49;16.70;92.90
851;DHT22;412;51.400;7.480;2023-05-16T12:50:15;16.70;92.70
851;DHT22;412;51.400;7.480;2023-05-16T12:52:51;16.80;92.90
851;DHT22;412;51.400;7.480;2023-05-16T12:55:21;16.90;93.70
851;DHT22;412;51.400;7.480;2023-05-16T12:57:47;17.00;90.00
851;DHT22;412;51.400;7.480;2023-05-16T13:00:17;17.10;88.10
851;DHT22;412;51.400;7.480;2023-05-16T13:02:44;17.10;89.30
851;DHT22;412;51.400;7.480;2023-05-16T13:05:10;17.10;90.20
851;DHT22;412;51.400;7.480;2023-05-16T13:07:36;17.10;86.20
851;DHT22;412;51.400;7.480;2023-05-16T13:10:11;17.00;86.80
851;DHT22;412;51.400;7.480;2023-05-16T13:12:38;16.90;86.30
851;DHT22;412;51.400;7.480;2023-05-16T13:15:05;16.90;88.40
851;DHT22;412;51.400;7.480;2023-05-16T13:17:36;16.80;86.00
851;DHT22;412;51.400;7.480;2023-05-16T13:20:03;16.80;85.20
851;DHT22;412;51.400;7.480;2023-05-16T13:22:38;16.80;88.70
851;DHT22;412;51.400;7.480;2023-05-16T13:25:04;16.90;86.50
851;DHT22;412;51.400;7.480;2023-05-16T13:27:31;17.00;85.80
851;DHT22;412;51.400;7.480;2023-05-16T13:29:57;17.00;85.80
851;DHT22;412;51.400;7.480;2023-05-16T13:32:24;17.10;85.70
851;DHT22;412;51.400;7.480;2023-05-16T13:34:51;17.10;84.00
851;DHT22;412;51.400;7.480;2023-05-16T13:37:18;17.30;90.10
851;DHT22;412;51.400;7.480;2023-05-16T13:39:43;17.30;82.50
851;DHT22;412;51.400;7.480;2023-05-16T13:42:10;17.40;83.40
851;DHT22;412;51.400;7.480;2023-05-16T13:44:35;17.40;81.60
851;DHT22;412;51.400;7.480;2023-05-16T13:47:07;17.40;81.80
851;DHT22;412;51.400;7.480;2023-05-16T13:49:33;17.40;79.70
851;DHT22;412;51.400;7.480;2023-05-16T13:51:59;17.40;80.20
851;DHT22;412;51.400;7.480;2023-05-16T13:54:26;17.40;81.90
851;DHT22;412;51.400;7.480;2023-05-16T13:56:51;17.40;85.40
851;DHT22;412;51.400;7.480;2023-05-16T13:59:17;17.60;88.30
851;DHT22;412;51.400;7.480;2023-05-16T14:01:43;17.70;85.10
851;DHT22;412;51.400;7.480;2023-05-16T14:04:09;17.90;82.20
851;DHT22;412;51.400;7.480;2023-05-16T14:06:34;18.00;84.10
851;DHT22;412;51.400;7.480;2023-05-16T14:09:00;18.00;77.70
851;DHT22;412;51.400;7.480;2023-05-16T14:11:26;18.00;74.40
851;DHT22;412;51.400;7.480;2023-05-16T14:13:52;18.10;75.30
851;DHT22;412;51.400;7.480;2023-05-16T14:16:19;18.10;75.10
851;DHT22;412;51.400;7.480;2023-05-16T14:18:44;18.10;74.20
851;DHT22;412;51.400;7.480;2023-05-16T14:21:10;18.10;74.00
851;DHT22;412;51.400;7.480;2023-05-16T14:23:36;18.10;74.50
851;DHT22;412;51.400;7.480;2023-05-16T14:26:02;18.00;72.40
851;DHT22;412;51.400;7.480;2023-05-16T14:28:29;18.00;71.90
851;DHT22;412;51.400;7.480;2023-05-16T14:30:57;17.90;77.60
851;DHT22;412;51.400;7.480;2023-05-16T14:33:23;18.00;75.50
851;DHT22;412;51.400;7.480;2023-05-16T14:35:49;17.90;74.40
851;DHT22;412;51.400;7.480;2023-05-16T14:38:18;17.90;72.90
851;DHT22;412;51.400;7.480;2023-05-16T14:40:44;17.90;75.60
851;DHT22;412;51.400;7.480;2023-05-16T14:43:09;17.90;74.90
851;DHT22;412;51.400;7.480;2023-05-16T14:45:38;17.90;77.40
851;DHT22;412;51.400;7.480;2023-05-16T14:48:05;17.90;76.40
851;DHT22;412;51.400;7.480;2023-05-16T14:50:31;18.00;74.00
851;DHT22;412;51.400;7.480;2023-05-16T14:52:57;18.10;73.20
851;DHT22;412;51.400;7.480;2023-05-16T14:55:23;18.10;71.70
851;DHT22;412;51.400;7.480;2023-05-16T14:57:49;18.20;72.50
851;DHT22;412;51.400;7.480;2023-05-16T15:00:15;18.00;71.90
851;DHT22;412;51.400;7.480;2023-05-16T15:02:42;18.00;71.50
851;DHT22;412;51.400;7.480;2023-05-16T15:05:08;17.90;72.40
851;DHT22;412;51.400;7.480;2023-05-16T15:07:34;17.90;70.10
851;DHT22;412;51.400;7.480;2023-05-16T15:09:59;17.80;73.10
851;DHT22;412;51.400;7.480;2023-05-16T15:12:26;17.80;72.70
851;DHT22;412;51.400;7.480;2023-05-16T15:14:52;17.80;73.60
851;DHT22;412;51.400;7.480;2023-05-16T15:17:18;17.80;74.30
851;DHT22;412;51.400;7.480;2023-05-16T15:19:47;17.80;73.70
851;DHT22;412;51.400;7.480;2023-05-16T15:22:13;17.80;71.10
851;DHT22;412;51.400;7.480;2023-05-16T15:24:39;17.80;72.30
851;DHT22;412;51.400;7.480;2023-05-16T15:27:05;17.80;72.70
851;DHT22;412;51.400;7.480;2023-05-16T15:29:31;17.80;71.40
851;DHT22;412;51.400;7.480;2023-05-16T15:31:56;17.80;72.10
851;DHT22;412;51.400;7.480;2023-05-16T15:34:22;17.70;74.20
851;DHT22;412;51.400;7.480;2023-05-16T15:36:49;17.60;74.00
851;DHT22;412;51.400;7.480;2023-05-16T15:39:15;17.50;73.80
851;DHT22;412;51.400;7.480;2023-05-16T15:41:41;17.50;76.30
851;DHT22;412;51.400;7.480;2023-05-16T15:44:06;17.50;75.50
851;DHT22;412;51.400;7.480;2023-05-16T15:46:32;17.50;74.90
851;DHT22;412;51.400;7.480;2023-05-16T15:48:58;17.30;76.10
851;DHT22;412;51.400;7.480;2023-05-16T15:51:24;17.20;78.20
851;DHT22;412;51.400;7.480;2023-05-16T15:53:50;17.20;75.70
851;DHT22;412;51.400;7.480;2023-05-16T15:56:16;17.10;77.20
851;DHT22;412;51.400;7.480;2023-05-16T15:58:42;17.00;77.00
851;DHT22;412;51.400;7.480;2023-05-16T16:01:11;17.00;77.60
851;DHT22;412;51.400;7.480;2023-05-16T16:03:36;16.90;78.60
851;DHT22;412;51.400;7.480;2023-05-16T16:06:04;16.80;79.90
851;DHT22;412;51.400;7.480;2023-05-16T16:08:30;16.80;80.00
851;DHT22;412;51.400;7.480;2023-05-16T16:10:56;16.70;80.40
851;DHT22;412;51.400;7.480;2023-05-16T16:13:21;16.70;80.40
851;DHT22;412;51.400;7.480;2023-05-16T16:15:49;16.70;81.10
851;DHT22;412;51.400;7.480;2023-05-16T16:18:15;16.60;82.30
851;DHT22;412;51.400;7.480;2023-05-16T16:20:40;16.60;81.90
851;DHT22;412;51.400;7.480;2023-05-16T16:23:06;16.60;80.70
851;DHT22;412;51.400;7.480;2023-05-16T16:25:32;16.60;82.20
851;DHT22;412;51.400;7.480;2023-05-16T16:27:58;16.60;81.80
851;DHT22;412;51.400;7.480;2023-05-16T16:30:25;16.60;83.10
851;DHT22;412;51.400;7.480;2023-05-16T16:32:51;16.50;81.70
851;DHT22;412;51.400;7.480;2023-05-16T16:35:17;16.50;82.60
851;DHT22;412;51.400;7.480;2023-05-16T16:37:42;16.50;83.60
851;DHT22;412;51.400;7.480;2023-05-16T16:40:09;16.50;85.00
851;DHT22;412;51.400;7.480;2023-05-16T16:42:35;16.50;83.00
851;DHT22;412;51.400;7.480;2023-05-16T16:45:04;16.40;81.80
851;DHT22;412;51.400;7.480;2023-05-16T16:47:29;16.40;81.90
851;DHT22;412;51.400;7.480;2023-05-16T16:49:57;16.40;82.20
851;DHT22;412;51.400;7.480;2023-05-16T16:52:22;16.40;82.20